createdAt,value
2022-09-03T00:00:56.794Z,0.00
2022-09-03T00:01:56.827Z,0.00
2022-09-03T00:02:56.827Z,0.00
2022-09-03T00:03:56.770Z,0.00
2022-09-03T00:04:56.729Z,0.00
2022-09-03T00:05:56.730Z,0.00
2022-09-03T00:06:56.684Z,0.00
2022-09-03T00:07:56.702Z,0.00
2022-09-03T00:08:56.644Z,0.00
2022-09-03T00:09:56.672Z,0.00
2022-09-03T00:10:56.632Z,0.00
2022-09-03T00:11:56.609Z,0.00
2022-09-03T00:12:56.621Z,0.00
2022-09-03T00:13:56.585Z,0.00
2022-09-03T00:14:56.579Z,0.00
2022-09-03T00:15:56.560Z,0.00
2022-09-03T00:16:56.522Z,0.00
2022-09-03T00:17:56.527Z,0.00
2022-09-03T00:18:56.480Z,0.00
2022-09-03T00:19:56.487Z,0.00
2022-09-03T00:20:56.443Z,0.00
2022-09-03T00:21:56.427Z,0.00
2022-09-03T00:22:56.442Z,0.00
2022-09-03T00:23:56.388Z,0.00
2022-09-03T00:24:56.482Z,0.00
2022-09-03T00:25:56.434Z,0.00
2022-09-03T00:26:56.371Z,0.00
2022-09-03T00:27:56.373Z,0.00
2022-09-03T00:28:56.332Z,0.00
2022-09-03T00:29:56.321Z,0.00
2022-09-03T00:30:56.299Z,0.00
2022-09-03T00:31:56.261Z,0.00
2022-09-03T00:32:56.272Z,0.00
2022-09-03T00:33:56.236Z,0.00
2022-09-03T00:34:56.218Z,0.00
2022-09-03T00:35:56.225Z,0.00
2022-09-03T00:36:56.252Z,0.00
2022-09-03T00:37:56.198Z,0.00
2022-09-03T00:38:56.154Z,0.00
2022-09-03T00:39:56.172Z,0.00
2022-09-03T00:40:56.120Z,0.00
2022-09-03T00:41:56.100Z,0.00
2022-09-03T00:42:56.132Z,0.00
2022-09-03T00:43:56.076Z,0.00
2022-09-03T00:44:56.045Z,0.00
2022-09-03T00:45:56.119Z,0.00
2022-09-03T00:46:56.046Z,0.00
2022-09-03T00:48:29.969Z,0.00
2022-09-03T00:48:55.962Z,0.00
2022-09-03T00:49:55.961Z,0.00
2022-09-03T00:50:55.937Z,0.00
2022-09-03T00:51:55.915Z,0.00
2022-09-03T00:52:55.991Z,0.00
2022-09-03T00:53:55.885Z,0.00
2022-09-03T00:54:55.877Z,0.00
2022-09-03T00:55:55.897Z,0.00
2022-09-03T00:56:55.847Z,0.00
2022-09-03T00:57:55.861Z,0.00
2022-09-03T00:58:55.842Z,0.00
2022-09-03T00:59:55.821Z,0.00
2022-09-03T01:00:55.797Z,0.00
2022-09-03T01:01:55.889Z,0.00
2022-09-03T01:02:55.862Z,0.00
2022-09-03T01:03:55.731Z,0.00
2022-09-03T01:04:55.712Z,0.00
2022-09-03T01:06:01.013Z,0.00
2022-09-03T01:06:57.709Z,0.00
2022-09-03T01:07:55.686Z,0.00
2022-09-03T01:08:55.639Z,0.00
2022-09-03T01:09:55.738Z,0.00
2022-09-03T01:10:55.618Z,0.00
2022-09-03T01:11:55.596Z,0.00
2022-09-03T01:12:55.923Z,0.00
2022-09-03T01:13:55.562Z,0.00
2022-09-03T01:14:55.559Z,0.00
2022-09-03T01:15:55.604Z,0.00
2022-09-03T01:16:55.522Z,0.00
2022-09-03T01:17:55.530Z,0.00
2022-09-03T01:18:55.490Z,0.00
2022-09-03T01:19:55.459Z,0.00
2022-09-03T01:20:55.549Z,0.00
2022-09-03T01:21:55.456Z,0.00
2022-09-03T01:22:55.459Z,0.00
2022-09-03T01:23:55.414Z,0.00
2022-09-03T01:24:55.382Z,0.00
2022-09-03T01:25:55.449Z,0.00
2022-09-03T01:26:55.349Z,0.00
2022-09-03T01:27:55.360Z,0.00
2022-09-03T01:28:55.310Z,0.00
2022-09-03T01:29:55.310Z,0.00
2022-09-03T01:30:55.315Z,0.00
2022-09-03T01:31:55.303Z,0.00
2022-09-03T01:32:55.281Z,0.00
2022-09-03T01:33:55.249Z,0.00
2022-09-03T01:34:55.239Z,0.00
2022-09-03T01:35:55.195Z,0.00
2022-09-03T01:36:55.198Z,0.00
2022-09-03T01:37:55.207Z,0.00
2022-09-03T01:38:55.163Z,0.00
2022-09-03T01:39:55.194Z,0.00
2022-09-03T01:40:55.125Z,0.00
2022-09-03T01:41:55.091Z,0.00
2022-09-03T01:42:55.233Z,0.00
2022-09-03T01:43:55.068Z,0.00
2022-09-03T01:44:55.062Z,0.00
2022-09-03T01:45:55.191Z,0.00
2022-09-03T01:46:55.013Z,0.00
2022-09-03T01:47:55.080Z,0.00
2022-09-03T01:48:54.984Z,0.00
2022-09-03T01:49:54.978Z,0.00
2022-09-03T01:50:54.946Z,0.00
2022-09-03T01:51:54.939Z,0.00
2022-09-03T01:52:54.958Z,0.00
2022-09-03T01:53:54.972Z,0.00
2022-09-03T01:54:54.882Z,0.00
2022-09-03T01:55:55.001Z,0.00
2022-09-03T01:56:54.855Z,0.00
2022-09-03T01:57:54.868Z,0.00
2022-09-03T01:58:54.826Z,0.00
2022-09-03T01:59:54.796Z,0.00
2022-09-03T02:00:54.794Z,0.00
2022-09-03T02:01:54.776Z,0.00
2022-09-03T02:02:54.944Z,0.00
2022-09-03T02:03:54.739Z,0.00
2022-09-03T02:04:54.805Z,0.00
2022-09-03T02:05:54.708Z,0.00
2022-09-03T02:06:54.689Z,0.00
2022-09-03T02:07:54.697Z,0.00
2022-09-03T02:08:54.648Z,0.00
2022-09-03T02:09:54.637Z,0.00
2022-09-03T02:10:54.620Z,0.00
2022-09-03T02:11:54.599Z,0.00
2022-09-03T02:12:54.610Z,0.00
2022-09-03T02:13:54.565Z,0.00
2022-09-03T02:14:54.549Z,0.00
2022-09-03T02:15:54.636Z,0.00
2022-09-03T02:16:54.518Z,0.00
2022-09-03T02:17:54.535Z,0.00
2022-09-03T02:18:54.489Z,0.00
2022-09-03T02:19:54.515Z,0.00
2022-09-03T02:20:54.445Z,0.00
2022-09-03T02:21:54.443Z,0.00
2022-09-03T02:22:54.452Z,0.00
2022-09-03T02:23:54.405Z,0.00
2022-09-03T02:24:54.373Z,0.00
2022-09-03T02:25:54.425Z,0.00
2022-09-03T02:26:54.409Z,0.00
2022-09-03T02:27:54.374Z,0.00
2022-09-03T02:28:54.308Z,0.00
2022-09-03T02:29:54.301Z,0.00
2022-09-03T02:30:54.344Z,0.00
2022-09-03T02:31:54.269Z,0.00
2022-09-03T02:32:54.277Z,0.00
2022-09-03T02:33:54.230Z,0.00
2022-09-03T02:34:54.222Z,0.00
2022-09-03T02:35:54.422Z,0.00
2022-09-03T02:36:54.185Z,0.00
2022-09-03T02:37:54.309Z,0.00
2022-09-03T02:38:54.151Z,0.00
2022-09-03T02:39:54.176Z,0.00
2022-09-03T02:40:54.123Z,0.00
2022-09-03T02:41:54.096Z,0.00
2022-09-03T02:42:54.124Z,0.00
2022-09-03T02:43:54.082Z,0.00
2022-09-03T02:44:54.055Z,0.00
2022-09-03T02:45:54.124Z,0.00
2022-09-03T02:46:54.016Z,0.00
2022-09-03T02:47:54.037Z,0.00
2022-09-03T02:48:54.076Z,0.00
2022-09-03T02:49:53.977Z,0.00
2022-09-03T02:50:53.968Z,0.00
2022-09-03T02:51:53.939Z,0.00
2022-09-03T02:52:53.956Z,0.00
2022-09-03T02:53:53.899Z,0.00
2022-09-03T02:54:53.895Z,0.00
2022-09-03T02:55:53.910Z,0.00
2022-09-03T02:56:53.865Z,0.00
2022-09-03T02:57:53.877Z,0.00
2022-09-03T02:58:53.831Z,0.00
2022-09-03T02:59:53.819Z,0.00
2022-09-03T03:00:53.831Z,0.00
2022-09-03T03:01:53.767Z,0.00
2022-09-03T03:02:53.839Z,0.00
2022-09-03T03:03:53.754Z,0.00
2022-09-03T03:04:53.727Z,0.00
2022-09-03T03:05:53.730Z,0.00
2022-09-03T03:06:53.728Z,0.00
2022-09-03T03:07:53.704Z,0.00
2022-09-03T03:08:53.657Z,0.00
2022-09-03T03:09:53.646Z,0.00
2022-09-03T03:10:53.728Z,0.00
2022-09-03T03:11:53.615Z,0.00
2022-09-03T03:12:53.659Z,0.00
2022-09-03T03:13:53.580Z,0.00
2022-09-03T03:14:53.555Z,0.00
2022-09-03T03:15:53.565Z,0.00
2022-09-03T03:16:54.668Z,0.00
2022-09-03T03:17:53.557Z,0.00
2022-09-03T03:18:53.507Z,0.00
2022-09-03T03:19:53.479Z,0.00
2022-09-03T03:20:53.472Z,0.00
2022-09-03T03:21:53.480Z,0.00
2022-09-03T03:22:53.459Z,0.00
2022-09-03T03:23:53.416Z,0.00
2022-09-03T03:24:53.411Z,0.00
2022-09-03T03:25:53.393Z,0.00
2022-09-03T03:26:53.369Z,0.00
2022-09-03T03:27:53.380Z,0.00
2022-09-03T03:28:53.323Z,0.00
2022-09-03T03:29:53.324Z,0.00
2022-09-03T03:30:53.328Z,0.00
2022-09-03T03:31:53.285Z,0.00
2022-09-03T03:32:53.379Z,0.00
2022-09-03T03:33:53.263Z,0.00
2022-09-03T03:34:53.257Z,0.00
2022-09-03T03:35:53.245Z,0.00
2022-09-03T03:36:53.215Z,0.00
2022-09-03T03:37:53.224Z,0.00
2022-09-03T03:38:53.180Z,0.00
2022-09-03T03:39:53.197Z,0.00
2022-09-03T03:40:53.143Z,0.00
2022-09-03T03:41:53.108Z,0.00
2022-09-03T03:42:53.212Z,0.00
2022-09-03T03:43:53.103Z,0.00
2022-09-03T03:44:53.072Z,0.00
2022-09-03T03:45:53.144Z,0.00
2022-09-03T03:46:53.033Z,0.00
2022-09-03T03:47:53.041Z,0.00
2022-09-03T03:48:53.000Z,0.00
2022-09-03T03:49:52.975Z,0.00
2022-09-03T03:50:53.059Z,0.00
2022-09-03T03:51:52.954Z,0.00
2022-09-03T03:52:52.974Z,0.00
2022-09-03T03:53:52.945Z,0.00
2022-09-03T03:54:52.881Z,0.00
2022-09-03T03:55:52.895Z,0.00
2022-09-03T03:56:55.826Z,4.00
2022-09-03T03:57:52.882Z,4.00
2022-09-03T03:58:52.827Z,0.00
2022-09-03T03:59:52.813Z,0.00
2022-09-03T04:00:52.832Z,4.00
2022-09-03T04:01:52.777Z,0.00
2022-09-03T04:02:52.901Z,4.00
2022-09-03T04:03:52.742Z,4.00
2022-09-03T04:04:52.746Z,4.00
2022-09-03T04:05:52.762Z,4.00
2022-09-03T04:06:52.710Z,8.00
2022-09-03T04:07:52.722Z,8.00
2022-09-03T04:08:52.672Z,8.00
2022-09-03T04:09:52.651Z,8.00
2022-09-03T04:10:52.675Z,8.00
2022-09-03T04:11:52.608Z,12.00
2022-09-03T04:12:52.624Z,16.00
2022-09-03T04:13:52.573Z,20.00
2022-09-03T04:14:52.571Z,20.00
2022-09-03T04:15:52.565Z,28.00
2022-09-03T04:16:52.646Z,32.00
2022-09-03T04:17:52.554Z,36.00
2022-09-03T04:18:52.498Z,40.00
2022-09-03T04:19:52.482Z,52.00
2022-09-03T04:20:52.457Z,60.00
2022-09-03T04:21:52.454Z,68.00
2022-09-03T04:22:52.454Z,76.00
2022-09-03T04:23:52.414Z,92.00
2022-09-03T04:24:52.398Z,104.00
2022-09-03T04:25:52.413Z,120.00
2022-09-03T04:26:52.355Z,136.00
2022-09-03T04:27:52.358Z,152.00
2022-09-03T04:28:52.364Z,176.00
2022-09-03T04:29:52.325Z,200.00
2022-09-03T04:30:52.383Z,220.00
2022-09-03T04:31:52.280Z,252.00
2022-09-03T04:32:52.579Z,276.00
2022-09-03T04:33:52.279Z,308.00
2022-09-03T04:34:52.240Z,340.00
2022-09-03T04:35:52.247Z,376.00
2022-09-03T04:36:52.986Z,408.00
2022-09-03T04:37:53.184Z,448.00
2022-09-03T04:38:52.223Z,492.00
2022-09-03T04:39:52.246Z,536.00
2022-09-03T04:40:52.129Z,580.00
2022-09-03T04:41:52.109Z,628.00
2022-09-03T04:42:52.098Z,684.00
2022-09-03T04:43:52.117Z,740.00
2022-09-03T04:44:52.112Z,792.00
2022-09-03T04:45:52.105Z,856.00
2022-09-03T04:46:52.023Z,920.00
2022-09-03T04:47:52.016Z,980.00
2022-09-03T04:48:52.031Z,1056.00
2022-09-03T04:49:51.983Z,1132.00
2022-09-03T04:50:51.959Z,1212.00
2022-09-03T04:51:51.950Z,1288.00
2022-09-03T04:52:52.017Z,1372.00
2022-09-03T04:53:51.950Z,1452.00
2022-09-03T04:54:51.983Z,1516.00
2022-09-03T04:55:51.952Z,1576.00
2022-09-03T04:56:51.977Z,1688.00
2022-09-03T04:57:52.021Z,1760.00
2022-09-03T04:58:51.852Z,1836.00
2022-09-03T04:59:51.798Z,1992.00
2022-09-03T05:00:51.931Z,2320.00
2022-09-03T05:01:51.792Z,4732.00
2022-09-03T05:02:51.766Z,9216.00
2022-09-03T05:03:51.799Z,11104.00
2022-09-03T05:04:51.773Z,11520.00
2022-09-03T05:05:52.538Z,12448.00
2022-09-03T05:06:52.686Z,13056.00
2022-09-03T05:07:51.686Z,14016.00
2022-09-03T05:08:51.707Z,14880.00
2022-09-03T05:09:51.652Z,15552.00
2022-09-03T05:10:51.620Z,16128.00
2022-09-03T05:11:51.617Z,15520.00
2022-09-03T05:12:51.591Z,9580.00
2022-09-03T05:13:51.607Z,4476.00
2022-09-03T05:14:51.563Z,6260.00
2022-09-03T05:15:51.564Z,13952.00
2022-09-03T05:16:52.778Z,20384.00
2022-09-03T05:17:51.509Z,20608.00
2022-09-03T05:18:51.526Z,21728.00
2022-09-03T05:19:51.491Z,23904.00
2022-09-03T05:20:51.454Z,25696.00
2022-09-03T05:21:51.435Z,27584.00
2022-09-03T05:22:51.434Z,28384.00
2022-09-03T05:23:51.432Z,28384.00
2022-09-03T05:24:51.398Z,30080.00
2022-09-03T05:25:51.381Z,30720.00
2022-09-03T05:26:51.367Z,31712.00
2022-09-03T05:27:51.340Z,32000.00
2022-09-03T05:28:51.347Z,31776.00
2022-09-03T05:29:51.319Z,31872.00
2022-09-03T05:30:51.294Z,33824.00
2022-09-03T05:31:51.325Z,35904.00
2022-09-03T05:32:51.260Z,24992.00
2022-09-03T05:33:51.301Z,9984.00
2022-09-03T05:34:51.229Z,6932.00
2022-09-03T05:35:51.204Z,7060.00
2022-09-03T05:36:51.180Z,8264.00
2022-09-03T05:37:51.161Z,17984.00
2022-09-03T05:38:51.189Z,29472.00
2022-09-03T05:39:51.172Z,39136.00
2022-09-03T05:40:51.156Z,41760.00
2022-09-03T05:41:51.110Z,43680.00
2022-09-03T05:42:51.073Z,43872.00
2022-09-03T05:43:51.089Z,41568.00
2022-09-03T05:44:51.047Z,41216.00
2022-09-03T05:45:51.130Z,43520.00
2022-09-03T05:46:51.008Z,44800.00
2022-09-03T05:47:51.003Z,47776.00
2022-09-03T05:48:51.011Z,49920.00
2022-09-03T05:49:50.961Z,50016.00
2022-09-03T05:50:50.949Z,48832.00
2022-09-03T05:51:50.955Z,47392.00
2022-09-03T05:52:50.932Z,47968.00
2022-09-03T05:53:50.922Z,50304.00
2022-09-03T05:54:50.874Z,51712.00
2022-09-03T05:55:50.865Z,41856.00
2022-09-03T05:56:50.863Z,19776.00
2022-09-03T05:57:50.837Z,10108.00
2022-09-03T05:58:50.904Z,10176.00
2022-09-03T05:59:50.931Z,20608.00
2022-09-03T06:00:50.786Z,41408.00
2022-09-03T06:01:53.758Z,52384.00
2022-09-03T06:02:51.841Z,55136.00
2022-09-03T06:03:51.109Z,57376.00
2022-09-03T06:04:50.789Z,59680.00
2022-09-03T06:05:50.697Z,60320.00
2022-09-03T06:06:50.688Z,59904.00
2022-09-03T06:07:50.660Z,57536.00
2022-09-03T06:08:50.691Z,58752.00
2022-09-03T06:09:50.644Z,59136.00
2022-09-03T06:10:50.609Z,59008.00
2022-09-03T06:11:50.607Z,61344.00
2022-09-03T06:12:50.572Z,61056.00
2022-09-03T06:13:50.622Z,59648.00
2022-09-03T06:14:50.544Z,62272.00
2022-09-03T06:15:50.547Z,63584.00
2022-09-03T06:16:50.646Z,67296.00
2022-09-03T06:17:50.499Z,70528.00
2022-09-03T06:18:50.515Z,73312.00
2022-09-03T06:19:50.527Z,67040.00
2022-09-03T06:20:50.461Z,56896.00
2022-09-03T06:21:50.442Z,30016.00
2022-09-03T06:22:50.431Z,13684.00
2022-09-03T06:23:50.460Z,28352.00
2022-09-03T06:24:50.392Z,55808.00
2022-09-03T06:25:50.389Z,71200.00
2022-09-03T06:26:50.365Z,70784.00
2022-09-03T06:27:50.332Z,67008.00
2022-09-03T06:28:50.365Z,62944.00
2022-09-03T06:29:50.322Z,62752.00
2022-09-03T06:30:50.294Z,70624.00
2022-09-03T06:31:50.360Z,74880.00
2022-09-03T06:32:50.255Z,78336.00
2022-09-03T06:33:50.281Z,80384.00
2022-09-03T06:34:50.233Z,77024.00
2022-09-03T06:35:50.325Z,74112.00
2022-09-03T06:36:50.221Z,74720.00
2022-09-03T06:37:50.184Z,74048.00
2022-09-03T06:38:50.203Z,70976.00
2022-09-03T06:39:50.238Z,70304.00
2022-09-03T06:40:50.186Z,75840.00
2022-09-03T06:41:50.118Z,79680.00
2022-09-03T06:42:50.139Z,83104.00
2022-09-03T06:43:50.129Z,84416.00
2022-09-03T06:44:50.160Z,82720.00
2022-09-03T06:45:50.144Z,78944.00
2022-09-03T06:46:50.044Z,60288.00
2022-09-03T06:47:50.051Z,27648.00
2022-09-03T06:49:23.590Z,23520.00
2022-09-03T06:49:50.009Z,53920.00
2022-09-03T06:50:49.998Z,77696.00
2022-09-03T06:51:49.988Z,80960.00
2022-09-03T06:52:49.955Z,80224.00
2022-09-03T06:53:49.987Z,78560.00
2022-09-03T06:54:49.941Z,79200.00
2022-09-03T06:55:49.929Z,80736.00
2022-09-03T06:56:49.928Z,80960.00
2022-09-03T06:57:52.812Z,81696.00
2022-09-03T06:58:49.922Z,84160.00
2022-09-03T06:59:49.882Z,84448.00
2022-09-03T07:00:49.918Z,85344.00
2022-09-03T07:01:49.903Z,90688.00
2022-09-03T07:02:50.021Z,88096.00
2022-09-03T07:03:49.827Z,85920.00
2022-09-03T07:04:49.796Z,86688.00
2022-09-03T07:05:49.781Z,85632.00
2022-09-03T07:06:49.773Z,84576.00
2022-09-03T07:07:49.741Z,84288.00
2022-09-03T07:08:49.740Z,83456.00
2022-09-03T07:09:49.696Z,81888.00
2022-09-03T07:10:49.683Z,84320.00
2022-09-03T07:11:49.670Z,83936.00
2022-09-03T07:12:49.655Z,83552.00
2022-09-03T07:13:49.674Z,54048.00
2022-09-03T07:14:51.126Z,26080.00
2022-09-03T07:15:49.658Z,52384.00
2022-09-03T07:16:49.607Z,82848.00
2022-09-03T07:17:49.566Z,86304.00
2022-09-03T07:18:49.596Z,81440.00
2022-09-03T07:19:49.553Z,60544.00
2022-09-03T07:20:49.513Z,35392.00
2022-09-03T07:21:50.706Z,18816.00
2022-09-03T07:22:50.504Z,17536.00
2022-09-03T07:23:49.500Z,17568.00
2022-09-03T07:24:49.452Z,17664.00
2022-09-03T07:25:49.437Z,17856.00
2022-09-03T07:26:49.455Z,18176.00
2022-09-03T07:27:49.403Z,18752.00
2022-09-03T07:28:49.414Z,32352.00
2022-09-03T07:29:49.373Z,55264.00
2022-09-03T07:30:49.376Z,75296.00
2022-09-03T07:31:49.392Z,88192.00
2022-09-03T07:32:49.337Z,86016.00
2022-09-03T07:33:49.338Z,86208.00
2022-09-03T07:34:49.296Z,88896.00
2022-09-03T07:35:49.273Z,86688.00
2022-09-03T07:36:49.265Z,84992.00
2022-09-03T07:37:49.243Z,84608.00
2022-09-03T07:38:49.252Z,84544.00
2022-09-03T07:39:49.284Z,84416.00
2022-09-03T07:40:49.192Z,83872.00
2022-09-03T07:41:49.185Z,85856.00
2022-09-03T07:42:52.109Z,91936.00
2022-09-03T07:43:51.174Z,93216.00
2022-09-03T07:44:49.137Z,90016.00
2022-09-03T07:45:49.169Z,87808.00
2022-09-03T07:46:49.204Z,84544.00
2022-09-03T07:47:49.082Z,84288.00
2022-09-03T07:48:49.101Z,88448.00
2022-09-03T07:49:49.041Z,90400.00
2022-09-03T07:50:49.031Z,90368.00
2022-09-03T07:51:49.006Z,90304.00
2022-09-03T07:52:49.015Z,91296.00
2022-09-03T07:53:49.021Z,89440.00
2022-09-03T07:54:49.027Z,86560.00
2022-09-03T07:55:49.957Z,84896.00
2022-09-03T07:56:48.942Z,88416.00
2022-09-03T07:57:48.940Z,92704.00
2022-09-03T07:58:48.949Z,94496.00
2022-09-03T07:59:48.908Z,92864.00
2022-09-03T08:00:48.935Z,89408.00
2022-09-03T08:01:48.895Z,89152.00
2022-09-03T08:02:48.854Z,91328.00
2022-09-03T08:03:48.930Z,90848.00
2022-09-03T08:04:48.835Z,95552.00
2022-09-03T08:05:48.799Z,97120.00
2022-09-03T08:06:48.784Z,99488.00
2022-09-03T08:07:48.779Z,99904.00
2022-09-03T08:08:48.798Z,92928.00
2022-09-03T08:09:48.758Z,85856.00
2022-09-03T08:10:48.737Z,82720.00
2022-09-03T08:11:48.736Z,85856.00
2022-09-03T08:12:48.702Z,87808.00
2022-09-03T08:13:48.721Z,88064.00
2022-09-03T08:14:48.668Z,86272.00
2022-09-03T08:15:48.697Z,89376.00
2022-09-03T08:16:48.643Z,94240.00
2022-09-03T08:17:48.631Z,96160.00
2022-09-03T08:18:48.643Z,94720.00
2022-09-03T08:19:48.631Z,92896.00
2022-09-03T08:20:48.587Z,93600.00
2022-09-03T08:21:49.572Z,93408.00
2022-09-03T08:22:48.555Z,94336.00
2022-09-03T08:23:48.563Z,93792.00
2022-09-03T08:24:48.527Z,93696.00
2022-09-03T08:25:48.517Z,92352.00
2022-09-03T08:26:52.171Z,92832.00
2022-09-03T08:27:49.481Z,89632.00
2022-09-03T08:28:48.511Z,87584.00
2022-09-03T08:29:48.457Z,88672.00
2022-09-03T08:30:48.447Z,91584.00
2022-09-03T08:31:48.496Z,92736.00
2022-09-03T08:32:48.413Z,91552.00
2022-09-03T08:33:48.428Z,93120.00
2022-09-03T08:34:48.394Z,94400.00
2022-09-03T08:35:48.364Z,95808.00
2022-09-03T08:36:48.352Z,94080.00
2022-09-03T08:37:48.330Z,89728.00
2022-09-03T08:38:48.364Z,92160.00
2022-09-03T08:39:48.350Z,95936.00
2022-09-03T08:40:48.304Z,98464.00
2022-09-03T08:41:48.281Z,98848.00
2022-09-03T08:42:48.262Z,97664.00
2022-09-03T08:43:48.318Z,95456.00
2022-09-03T08:44:48.260Z,93760.00
2022-09-03T08:45:48.226Z,93344.00
2022-09-03T08:46:48.303Z,92384.00
2022-09-03T08:47:48.216Z,80480.00
2022-09-03T08:48:48.225Z,94368.00
2022-09-03T08:49:48.179Z,51808.00
2022-09-03T08:50:48.154Z,65472.00
2022-09-03T08:51:48.143Z,45536.00
2022-09-03T08:52:48.218Z,96384.00
2022-09-03T08:53:48.153Z,56704.00
2022-09-03T08:54:48.093Z,97568.00
2022-09-03T08:55:48.077Z,101792.00
2022-09-03T08:56:48.074Z,96448.00
2022-09-03T08:57:48.056Z,98656.00
2022-09-03T08:58:48.071Z,55584.00
2022-09-03T08:59:48.020Z,101664.00
2022-09-03T09:00:48.028Z,105696.00
2022-09-03T09:01:48.113Z,99424.00
2022-09-03T09:02:48.027Z,95136.00
2022-09-03T09:03:48.044Z,62400.00
2022-09-03T09:04:47.973Z,71584.00
2022-09-03T09:05:47.939Z,64832.00
2022-09-03T09:06:47.934Z,59136.00
2022-09-03T09:07:47.912Z,57600.00
2022-09-03T09:08:47.950Z,93056.00
2022-09-03T09:09:47.899Z,99616.00
2022-09-03T09:10:47.872Z,100864.00
2022-09-03T09:11:47.884Z,98880.00
2022-09-03T09:12:47.869Z,81696.00
2022-09-03T09:13:47.851Z,85760.00
2022-09-03T09:14:47.812Z,86368.00
2022-09-03T09:15:47.872Z,85440.00
2022-09-03T09:16:47.794Z,84288.00
2022-09-03T09:17:47.778Z,80448.00
2022-09-03T09:18:47.783Z,81120.00
2022-09-03T09:19:48.774Z,79008.00
2022-09-03T09:20:47.726Z,62432.00
2022-09-03T09:21:47.713Z,60320.00
2022-09-03T09:22:47.710Z,47200.00
2022-09-03T09:23:47.714Z,83680.00
2022-09-03T09:24:47.672Z,81952.00
2022-09-03T09:25:47.658Z,85344.00
2022-09-03T09:26:47.640Z,88640.00
2022-09-03T09:27:47.624Z,85440.00
2022-09-03T09:28:47.651Z,79488.00
2022-09-03T09:29:47.602Z,80000.00
2022-09-03T09:30:47.659Z,87392.00
2022-09-03T09:31:47.577Z,85536.00
2022-09-03T09:32:47.567Z,72864.00
2022-09-03T09:33:47.576Z,65856.00
2022-09-03T09:34:51.827Z,62784.00
2022-09-03T09:35:48.517Z,73408.00
2022-09-03T09:36:47.540Z,84128.00
2022-09-03T09:37:47.491Z,80896.00
2022-09-03T09:38:47.506Z,84672.00
2022-09-03T09:39:47.519Z,83872.00
2022-09-03T09:40:47.454Z,86720.00
2022-09-03T09:41:47.438Z,89952.00
2022-09-03T09:42:48.425Z,88288.00
2022-09-03T09:43:47.440Z,95040.00
2022-09-03T09:44:47.404Z,83936.00
2022-09-03T09:45:47.452Z,58720.00
2022-09-03T09:46:50.246Z,54528.00
2022-09-03T09:47:48.350Z,54080.00
2022-09-03T09:48:47.364Z,68288.00
2022-09-03T09:49:47.317Z,65376.00
2022-09-03T09:50:47.304Z,61920.00
2022-09-03T09:51:47.289Z,52640.00
2022-09-03T09:52:48.220Z,65824.00
2022-09-03T09:53:47.290Z,44768.00
2022-09-03T09:54:47.249Z,71680.00
2022-09-03T09:55:47.235Z,54592.00
2022-09-03T09:56:47.218Z,88768.00
2022-09-03T09:57:47.190Z,70368.00
2022-09-03T09:58:47.216Z,59520.00
2022-09-03T09:59:47.178Z,50368.00
2022-09-03T10:00:47.147Z,48384.00
2022-09-03T10:01:47.259Z,45504.00
2022-09-03T10:02:47.205Z,41088.00
2022-09-03T10:03:47.167Z,39584.00
2022-09-03T10:04:47.091Z,34976.00
2022-09-03T10:05:47.073Z,34176.00
2022-09-03T10:06:47.082Z,38496.00
2022-09-03T10:07:47.058Z,39520.00
2022-09-03T10:08:47.058Z,30976.00
2022-09-03T10:09:47.014Z,29120.00
2022-09-03T10:10:47.002Z,30592.00
2022-09-03T10:11:46.987Z,35872.00
2022-09-03T10:12:46.965Z,54176.00
2022-09-03T10:13:46.989Z,55136.00
2022-09-03T10:14:46.929Z,53952.00
2022-09-03T10:15:46.950Z,69728.00
2022-09-03T10:16:46.899Z,54400.00
2022-09-03T10:17:46.890Z,41600.00
2022-09-03T10:18:46.904Z,41920.00
2022-09-03T10:19:46.840Z,42496.00
2022-09-03T10:20:46.821Z,36640.00
2022-09-03T10:21:46.819Z,57408.00
2022-09-03T10:22:56.246Z,29216.00
2022-09-03T10:23:47.828Z,27424.00
2022-09-03T10:24:46.767Z,27424.00
2022-09-03T10:25:46.760Z,26528.00
2022-09-03T10:26:46.745Z,32416.00
2022-09-03T10:27:47.725Z,32640.00
2022-09-03T10:28:46.716Z,36128.00
2022-09-03T10:29:46.726Z,26208.00
2022-09-03T10:30:46.710Z,46432.00
2022-09-03T10:31:46.657Z,44608.00
2022-09-03T10:32:48.558Z,55776.00
2022-09-03T10:33:47.626Z,63904.00
2022-09-03T10:34:46.653Z,70400.00
2022-09-03T10:35:46.613Z,71584.00
2022-09-03T10:36:46.578Z,67488.00
2022-09-03T10:37:46.574Z,60544.00
2022-09-03T10:38:46.582Z,63808.00
2022-09-03T10:39:51.544Z,70720.00
2022-09-03T10:40:48.532Z,63392.00
2022-09-03T10:41:46.501Z,57344.00
2022-09-03T10:42:46.509Z,62944.00
2022-09-03T10:43:46.468Z,63104.00
2022-09-03T10:44:46.484Z,63520.00
2022-09-03T10:45:46.444Z,61984.00
2022-09-03T10:46:46.490Z,59840.00
2022-09-03T10:47:46.504Z,59872.00
2022-09-03T10:48:46.404Z,62720.00
2022-09-03T10:49:46.409Z,60992.00
2022-09-03T10:50:46.363Z,47456.00
2022-09-03T10:51:49.554Z,32224.00
2022-09-03T10:52:47.354Z,25024.00
2022-09-03T10:53:46.324Z,24640.00
2022-09-03T10:54:46.336Z,24512.00
2022-09-03T10:55:46.292Z,24416.00
2022-09-03T10:56:46.269Z,23968.00
2022-09-03T10:57:46.255Z,23680.00
2022-09-03T10:58:46.231Z,23424.00
2022-09-03T10:59:46.267Z,23296.00
2022-09-03T11:00:46.229Z,23040.00
2022-09-03T11:01:46.260Z,22496.00
2022-09-03T11:02:46.254Z,22336.00
2022-09-03T11:03:46.167Z,22144.00
2022-09-03T11:04:46.192Z,22080.00
2022-09-03T11:05:46.153Z,22016.00
2022-09-03T11:06:46.109Z,21888.00
2022-09-03T11:07:46.115Z,21664.00
2022-09-03T11:08:46.073Z,21472.00
2022-09-03T11:09:46.089Z,21184.00
2022-09-03T11:10:46.054Z,20832.00
2022-09-03T11:11:46.041Z,20672.00
2022-09-03T11:12:46.028Z,20512.00
2022-09-03T11:13:46.006Z,20512.00
2022-09-03T11:14:46.013Z,20352.00
2022-09-03T11:15:46.027Z,20096.00
2022-09-03T11:16:46.952Z,19936.00
2022-09-03T11:17:45.931Z,19968.00
2022-09-03T11:18:45.934Z,20032.00
2022-09-03T11:19:45.948Z,20032.00
2022-09-03T11:20:45.896Z,19968.00
2022-09-03T11:21:45.867Z,19968.00
2022-09-03T11:22:45.883Z,20000.00
2022-09-03T11:23:45.834Z,20320.00
2022-09-03T11:24:45.874Z,20928.00
2022-09-03T11:25:45.800Z,21632.00
2022-09-03T11:26:45.898Z,21984.00
2022-09-03T11:27:45.781Z,22208.00
2022-09-03T11:28:45.809Z,22208.00
2022-09-03T11:29:45.760Z,20448.00
2022-09-03T11:30:45.767Z,20160.00
2022-09-03T11:31:45.720Z,20064.00
2022-09-03T11:32:45.699Z,19872.00
2022-09-03T11:33:45.742Z,19744.00
2022-09-03T11:34:45.680Z,19936.00
2022-09-03T11:35:45.662Z,20256.00
2022-09-03T11:36:48.033Z,20064.00
2022-09-03T11:37:46.643Z,19392.00
2022-09-03T11:38:45.662Z,19392.00
2022-09-03T11:39:45.638Z,19936.00
2022-09-03T11:40:45.582Z,20576.00
2022-09-03T11:41:45.553Z,20352.00
2022-09-03T11:42:45.541Z,19456.00
2022-09-03T11:43:45.536Z,18528.00
2022-09-03T11:44:51.733Z,17728.00
2022-09-03T11:45:46.533Z,16544.00
2022-09-03T11:46:45.492Z,15568.00
2022-09-03T11:47:45.472Z,15388.00
2022-09-03T11:48:45.445Z,15716.00
2022-09-03T11:49:45.458Z,16480.00
2022-09-03T11:50:45.432Z,16992.00
2022-09-03T11:51:45.413Z,17344.00
2022-09-03T11:52:45.391Z,17344.00
2022-09-03T11:53:45.362Z,17120.00
2022-09-03T11:54:45.376Z,16384.00
2022-09-03T11:55:45.339Z,15384.00
2022-09-03T11:56:45.326Z,14784.00
2022-09-03T11:57:45.307Z,14476.00
2022-09-03T11:58:45.295Z,14316.00
2022-09-03T11:59:45.306Z,14180.00
2022-09-03T12:00:45.270Z,14064.00
2022-09-03T12:01:45.236Z,14056.00
2022-09-03T12:02:45.303Z,14268.00
2022-09-03T12:03:45.225Z,14692.00
2022-09-03T12:04:45.325Z,15176.00
2022-09-03T12:05:45.177Z,15620.00
2022-09-03T12:06:45.157Z,15924.00
2022-09-03T12:07:45.153Z,16040.00
2022-09-03T12:08:45.126Z,15936.00
2022-09-03T12:09:45.138Z,15844.00
2022-09-03T12:10:45.089Z,15924.00
2022-09-03T12:11:45.076Z,15960.00
2022-09-03T12:12:45.082Z,16120.00
2022-09-03T12:13:45.056Z,16220.00
2022-09-03T12:14:45.065Z,16544.00
2022-09-03T12:15:45.044Z,16768.00
2022-09-03T12:16:45.008Z,16832.00
2022-09-03T12:17:44.980Z,16672.00